Flight Track Log - Related Links

Times and Time Zones

All times are in EST time to prevent confusion due to time zone crossing. See the JBU1503 flight status page for this flight to view local times or setup timezone preferences in your user account.

Time Position Orientation Groundspeed Altitude Reporting Facility
EST Latitude Longitude Course Direction KTS MPH feet Rate Location/Type
Sat 12:14:00 AM 40.1481 -73.5572 125° Southeast  Level Estimated
Sat 12:15:00 AM 40.1078 -73.3956 108° East  Level FlightAware Approximate
Sat 12:16:00 AM 40.0673 -73.2342 108° East  Level FlightAware Approximate
Sat 12:17:00 AM 39.9456 -73.1820 126° Southeast  Level Estimated
Sat 12:18:00 AM 39.8239 -73.1301 123° Southeast  Level Estimated
Sat 12:19:00 AM 39.7021 -73.0783 129° Southeast  Level Estimated
Sat 12:19:25 AM 40.1683 -73.1878 130° Southeast 376 433 18,500  Level New York Center
Sat 12:20:00 AM 39.6744 -72.9158 102° East  Level FlightAware Approximate
Sat 12:20:26 AM 40.1006 -73.1019 136° Southeast 395 455 19,700  Level New York Center
Sat 12:21:00 AM 39.6464 -72.7535 103° East  Level FlightAware Approximate
Sat 12:21:26 AM 40.0194 -72.9997 136° Southeast 407 468 21,000  Level New York Center
Sat 12:22:00 AM 39.5241 -72.7040 129° Southeast  Level Estimated
Sat 12:22:26 AM 39.9339 -72.8933 136° Southeast 425 489 22,200  Level New York Center
Sat 12:23:00 AM 39.4018 -72.6547 148° Southeast  Level Estimated
Sat 12:23:26 AM 39.8464 -72.7850 136° Southeast 434 499 23,000  Level New York Center
Sat 12:24:00 AM 39.3188 -72.5286 130° Southeast  Level FlightAware Approximate
Sat 12:24:27 AM 39.7581 -72.6769 137° Southeast 438 504 23,900  Level New York Center
Sat 12:25:27 AM 39.6689 -72.5650 136° Southeast 445 512 25,100 1,350 Climbing New York Center
Sat 12:26:27 AM 39.5586 -72.4308 137° Southeast 452 520 26,600 1,289 Climbing New York Center
Sat 12:27:28 AM 39.4658 -72.3167 136° Southeast 459 528 27,700 1,289 Climbing New York Center
Sat 12:28:28 AM 39.3731 -72.2031 137° Southeast 461 531 29,200 1,400 Climbing New York Center
Sat 12:29:28 AM 39.2794 -72.0908 137° Southeast 461 531 30,500 1,150 Climbing New York Center
Sat 12:30:28 AM 39.1886 -71.9797 137° Southeast 456 525 31,500 744 Climbing New York Center
Sat 12:31:29 AM 39.0964 -71.8639 136° Southeast 459 528 32,000 496 Climbing New York Center
Sat 12:32:29 AM 38.9992 -71.7497 138° Southeast 466 536 32,500 550 Climbing New York Center
Sat 12:33:29 AM 38.9006 -71.6317 137° Southeast 475 547 33,100 600 Climbing New York Center
Sat 12:34:29 AM 38.8000 -71.5128 137° Southeast 484 557 33,700 645 Climbing New York Center
Sat 12:35:30 AM 38.6997 -71.3925 137° Southeast 490 564 34,400 645 Climbing New York Center
Sat 12:36:30 AM 38.5992 -71.2731 137° Southeast 493 567 35,000 300 Climbing New York Center
Sat 12:37:30 AM 38.4989 -71.1517 137° Southeast 495 570 35,000  Level New York Center
Sat 12:38:30 AM 38.3956 -71.0378 139° Southeast 494 568 35,000  Level New York Center
Sat 12:39:31 AM 38.2933 -70.9208 138° Southeast 494 568 35,000  Level New York Center
Sat 12:40:31 AM 38.1908 -70.7997 137° Southeast 500 575 35,000  Level New York Center
Sat 12:41:31 AM 38.0903 -70.6794 137° Southeast 500 575 35,000  Level New York Center
Sat 12:42:31 AM 37.9853 -70.5689 140° Southeast 494 568 35,000  Level New York Center
Sat 12:43:31 AM 37.8683 -70.4950 153° Southeast 475 547 35,000  Level New York Center
Sat 12:45:00 AM 37.6969 -70.3914 155° Southeast  Level FlightAware Approximate
Sat 12:52:00 AM 36.9007 -69.8941 154° Southeast  Level FlightAware Approximate
Sat 12:53:00 AM 36.7851 -69.8251 154° Southeast  Level FlightAware Approximate
Sat 12:54:00 AM 36.6695 -69.7563 154° Southeast  Level FlightAware Approximate
Sat 12:55:00 AM 36.5538 -69.6877 155° Southeast  Level FlightAware Approximate
Sat 12:56:00 AM 36.4382 -69.6193 155° Southeast  Level FlightAware Approximate
Sat 12:57:00 AM 36.3224 -69.5512 155° Southeast  Level FlightAware Approximate
Sat 12:58:00 AM 36.2067 -69.4832 155° Southeast  Level FlightAware Approximate
Sat 12:59:00 AM 36.0862 -69.4324 167° South  Level FlightAware Approximate
Sat 01:00:00 AM 35.9612 -69.3981 167° South  Level FlightAware Approximate
Sat 01:01:00 AM 35.8361 -69.3639 167° South  Level FlightAware Approximate
Sat 01:01:04 AM 36.1667 -69.4500 168° South 472 543 35,000  Level New York Oceanic (ODAPS)
Sat 01:02:00 AM 35.7111 -69.3298 168° South  Level FlightAware Approximate
Sat 01:03:00 AM 35.5860 -69.2958 168° South  Level FlightAware Approximate
Sat 01:04:00 AM 35.4610 -69.2619 168° South  Level FlightAware Approximate
Sat 01:05:00 AM 35.3359 -69.2282 168° South  Level FlightAware Approximate
Sat 01:06:00 AM 35.2108 -69.1945 168° South  Level FlightAware Approximate
Sat 01:07:00 AM 35.0083 -69.1413 168° South 472 543 35,000  Level FlightAware Transoceanic
Sat 01:08:00 AM 34.8796 -69.1075 168° South 472 543 35,000  Level FlightAware Transoceanic
Sat 01:09:00 AM 34.7508 -69.0739 168° South 472 543 35,000  Level FlightAware Transoceanic
Sat 01:10:00 AM 34.6221 -69.0403 168° South 472 543 35,000  Level FlightAware Transoceanic
Sat 01:11:00 AM 34.4933 -69.0069 168° South 472 543 35,000  Level FlightAware Transoceanic
Sat 01:12:00 AM 34.3645 -68.9735 168° South 472 543 35,000  Level FlightAware Transoceanic
Sat 01:13:00 AM 34.2357 -68.9403 168° South 472 543 35,000  Level FlightAware Transoceanic
Sat 01:14:00 AM 34.1069 -68.9071 168° South 472 543 35,000  Level FlightAware Transoceanic
Sat 01:15:00 AM 33.9781 -68.8741 168° South 472 543 35,000  Level FlightAware Transoceanic
Sat 01:16:00 AM 33.8492 -68.8412 168° South 472 543 35,000  Level FlightAware Transoceanic
Sat 01:17:00 AM 33.7204 -68.8083 168° South 472 543 35,000  Level FlightAware Transoceanic
Sat 01:18:00 AM 33.5916 -68.7756 168° South 472 543 35,000  Level FlightAware Transoceanic
Sat 01:19:00 AM 33.4627 -68.7429 168° South 472 543 35,000  Level FlightAware Transoceanic
Sat 01:20:00 AM 33.3339 -68.7104 168° South 472 543 35,000  Level FlightAware Transoceanic
Sat 01:21:00 AM 33.2050 -68.6779 168° South 472 543 35,000  Level FlightAware Transoceanic
Sat 01:22:00 AM 33.0761 -68.6456 168° South 472 543 35,000  Level FlightAware Transoceanic
Sat 01:23:00 AM 32.9472 -68.6133 168° South 472 543 35,000  Level FlightAware Transoceanic
Sat 01:24:00 AM 32.8183 -68.5812 168° South 472 543 35,000  Level FlightAware Transoceanic
Sat 01:25:00 AM 32.6894 -68.5491 168° South 472 543 35,000  Level FlightAware Transoceanic
Sat 01:26:00 AM 32.5605 -68.5171 168° South 472 543 35,000  Level FlightAware Transoceanic
Sat 01:27:00 AM 32.4316 -68.4852 168° South 472 543 35,000  Level FlightAware Transoceanic
Sat 01:28:00 AM 32.3027 -68.4534 168° South 472 543 35,000  Level FlightAware Transoceanic
Sat 01:29:00 AM 32.1738 -68.4217 168° South 472 543 35,000  Level FlightAware Transoceanic
Sat 01:30:00 AM 32.0448 -68.3901 168° South 472 543 35,000  Level FlightAware Transoceanic
Sat 01:31:00 AM 31.9159 -68.3586 168° South 472 543 35,000  Level FlightAware Transoceanic
Sat 01:32:00 AM 31.7869 -68.3271 168° South 472 543 35,000  Level FlightAware Transoceanic
Sat 01:33:00 AM 31.6579 -68.2958 168° South 472 543 35,000  Level FlightAware Transoceanic
Sat 01:34:00 AM 31.5290 -68.2645 168° South 472 543 35,000  Level FlightAware Transoceanic
Sat 01:35:00 AM 31.4000 -68.2333 168° South 472 543 35,000  Level FlightAware Transoceanic
Sat 01:36:00 AM 31.2612 -68.2000 168° South 472 543 35,000  Level FlightAware Transoceanic
Sat 01:37:00 AM 31.1223 -68.1667 168° South 472 543 35,000  Level FlightAware Transoceanic
Sat 01:38:00 AM 30.9834 -68.1335 168° South 472 543 35,000  Level FlightAware Transoceanic
Sat 01:39:00 AM 30.8445 -68.1004 168° South 472 543 35,000  Level FlightAware Transoceanic
Sat 01:40:00 AM 30.7057 -68.0674 168° South 472 543 35,000  Level FlightAware Transoceanic
Sat 01:41:00 AM 30.5668 -68.0345 168° South 472 543 35,000  Level FlightAware Transoceanic
Sat 01:42:00 AM 30.4279 -68.0016 169° South 472 543 35,000  Level FlightAware Transoceanic
Sat 01:43:00 AM 30.2890 -67.9689 169° South 472 543 35,000  Level FlightAware Transoceanic
Sat 01:44:00 AM 30.1500 -67.9363 169° South 472 543 35,000  Level FlightAware Transoceanic
Sat 01:45:00 AM 30.0111 -67.9038 169° South 472 543 35,000  Level FlightAware Transoceanic
Sat 01:46:00 AM 29.8722 -67.8713 169° South 472 543 35,000  Level FlightAware Transoceanic
Sat 01:47:00 AM 29.7332 -67.8390 169° South 472 543 35,000  Level FlightAware Transoceanic
Sat 01:48:00 AM 29.5943 -67.8067 169° South 472 543 35,000  Level FlightAware Transoceanic
Sat 01:49:00 AM 29.4553 -67.7745 169° South 472 543 35,000  Level FlightAware Transoceanic
Sat 01:50:00 AM 29.3164 -67.7424 169° South 472 543 35,000  Level FlightAware Transoceanic
Sat 01:51:00 AM 29.1774 -67.7104 169° South 472 543 35,000  Level FlightAware Transoceanic
Sat 01:52:00 AM 29.0384 -67.6785 169° South 472 543 35,000  Level FlightAware Transoceanic
Sat 01:53:00 AM 28.8994 -67.6467 169° South 472 543 35,000  Level FlightAware Transoceanic
Sat 01:54:00 AM 28.7604 -67.6150 169° South 472 543 35,000  Level FlightAware Transoceanic
Sat 01:55:00 AM 28.6214 -67.5833 169° South 472 543 35,000  Level FlightAware Transoceanic
Sat 01:56:00 AM 28.4824 -67.5517 169° South 472 543 35,000  Level FlightAware Transoceanic
Sat 01:57:00 AM 28.3434 -67.5202 169° South 472 543 35,000  Level FlightAware Transoceanic
Sat 01:58:00 AM 28.2044 -67.4888 169° South 472 543 35,000  Level FlightAware Transoceanic
Sat 01:59:00 AM 28.0653 -67.4575 169° South 472 543 35,000  Level FlightAware Transoceanic
Sat 02:00:00 AM 27.9263 -67.4263 169° South 472 543 35,000  Level FlightAware Transoceanic
Sat 02:01:00 AM 27.7873 -67.3951 169° South 472 543 35,000  Level FlightAware Transoceanic
Sat 02:02:00 AM 27.6482 -67.3640 169° South 472 543 35,000  Level FlightAware Transoceanic
Sat 02:03:00 AM 27.5091 -67.3330 169° South 472 543 35,000  Level FlightAware Transoceanic
Sat 02:04:00 AM 27.3701 -67.3021 169° South 472 543 35,000  Level FlightAware Transoceanic
Sat 02:05:00 AM 27.2310 -67.2712 169° South 472 543 35,000  Level FlightAware Transoceanic
Sat 02:06:00 AM 27.0919 -67.2405 169° South 472 543 35,000  Level FlightAware Transoceanic
Sat 02:07:00 AM 26.9528 -67.2098 169° South 472 543 35,000  Level FlightAware Transoceanic
Sat 02:08:00 AM 26.8137 -67.1791 169° South 472 543 35,000  Level FlightAware Transoceanic
Sat 02:09:00 AM 26.6747 -67.1486 169° South 472 543 35,000  Level FlightAware Transoceanic
Sat 02:09:44 AM 27.0833 -67.2500 169° South 474 545 35,000  Level New York Oceanic (ODAPS)
Sat 02:10:00 AM 26.5355 -67.1181 169° South 472 543 35,000  Level FlightAware Transoceanic
Sat 02:11:00 AM 26.3964 -67.0877 169° South 472 543 35,000  Level FlightAware Transoceanic
Sat 02:12:00 AM 26.2573 -67.0574 169° South 472 543 35,000  Level FlightAware Transoceanic
Sat 02:13:00 AM 26.1182 -67.0271 169° South 472 543 35,000  Level FlightAware Transoceanic
Sat 02:14:00 AM 25.9791 -66.9970 169° South 472 543 35,000  Level FlightAware Transoceanic
Sat 02:15:00 AM 25.8399 -66.9669 169° South 472 543 35,000  Level FlightAware Transoceanic
Sat 02:16:00 AM 25.9120 -66.9906 169° South 474 545 35,000  Level FlightAware Transoceanic
Sat 02:17:00 AM 25.7818 -66.9621 169° South 474 545 35,000  Level FlightAware Transoceanic
Sat 02:18:00 AM 25.6517 -66.9336 169° South 474 545 35,000  Level FlightAware Transoceanic
Sat 02:19:00 AM 25.5215 -66.9053 169° South 474 545 35,000  Level FlightAware Transoceanic
Sat 02:20:00 AM 25.3913 -66.8770 169° South 474 545 35,000  Level FlightAware Transoceanic
Sat 02:21:00 AM 25.2611 -66.8487 169° South 474 545 35,000  Level FlightAware Transoceanic
Sat 02:22:00 AM 25.1309 -66.8205 169° South 474 545 35,000  Level FlightAware Transoceanic
Sat 02:23:00 AM 25.0007 -66.7924 169° South 474 545 35,000  Level FlightAware Transoceanic
Sat 02:24:00 AM 24.8705 -66.7643 169° South 474 545 35,000  Level FlightAware Transoceanic
Sat 02:25:00 AM 24.7402 -66.7363 169° South 474 545 35,000  Level FlightAware Transoceanic
Sat 02:26:00 AM 24.6100 -66.7083 169° South 474 545 35,000  Level FlightAware Transoceanic
Sat 02:27:00 AM 24.4798 -66.6804 169° South 474 545 35,000  Level FlightAware Transoceanic
Sat 02:28:00 AM 24.3496 -66.6526 169° South 474 545 35,000  Level FlightAware Transoceanic
Sat 02:29:00 AM 24.2193 -66.6248 169° South 474 545 35,000  Level FlightAware Transoceanic
Sat 02:30:00 AM 24.0891 -66.5971 169° South 474 545 35,000  Level FlightAware Transoceanic
Sat 02:31:00 AM 23.9588 -66.5694 169° South 474 545 35,000  Level FlightAware Transoceanic
Sat 02:32:00 AM 23.8286 -66.5418 169° South 474 545 35,000  Level FlightAware Transoceanic
Sat 02:33:00 AM 23.6983 -66.5142 169° South 474 545 35,000  Level FlightAware Transoceanic
Sat 02:34:00 AM 23.5681 -66.4867 169° South 474 545 35,000  Level FlightAware Transoceanic
Sat 02:35:00 AM 23.4378 -66.4593 169° South 474 545 35,000  Level FlightAware Transoceanic
Sat 02:36:00 AM 23.3075 -66.4319 169° South 474 545 35,000  Level FlightAware Transoceanic
Sat 02:37:00 AM 23.1772 -66.4045 169° South 474 545 35,000  Level FlightAware Transoceanic
Sat 02:38:00 AM 23.0469 -66.3772 169° South 474 545 35,000  Level FlightAware Transoceanic
Sat 02:39:00 AM 22.9167 -66.3500 169° South 474 545 35,000 1,714 Level FlightAware Transoceanic
Sat 02:39:10 AM 22.9167 -66.3500 169° South 543 625 37,000 2,105 Climbing New York Oceanic (ODAPS)
Sat 02:39:57 AM 22.4667 -66.2833 169° South 570 656 37,000 -2,400 Level San Juan Center
Sat 02:40:00 AM 22.7695 -66.3193 169° South 474 545 35,000  Descending FlightAware Transoceanic
Sat 02:40:57 AM 22.3333 -66.2500 167° South 550 633 37,000  Climbing San Juan Center
Sat 02:41:00 AM 22.6222 -66.2886 169° South 474 545 35,000  Descending FlightAware Transoceanic
Sat 02:41:57 AM 22.2000 -66.2000 161° South 510 587 37,000  Climbing San Juan Center
Sat 02:42:00 AM 22.4750 -66.2580 169° South 474 545 35,000  Descending FlightAware Transoceanic
Sat 02:42:58 AM 22.0500 -66.1833 174° South 530 610 37,000  Climbing San Juan Center
Sat 02:43:00 AM 22.3278 -66.2275 169° South 474 545 35,000  Descending FlightAware Transoceanic
Sat 02:43:58 AM 21.9000 -66.1667 174° South 510 587 37,000  Climbing San Juan Center
Sat 02:44:00 AM 22.1806 -66.1971 169° South 474 545 35,000  Descending FlightAware Transoceanic
Sat 02:44:58 AM 21.7667 -66.1333 167° South 530 610 37,000 2,000 Climbing San Juan Center
Sat 02:45:00 AM 21.7500 -66.1082 169° South 543 625 37,000  Level FlightAware Transoceanic
Sat 02:45:58 AM 21.6333 -66.0833 161° South 510 587 37,000  Level San Juan Center
Sat 02:46:58 AM 21.4833 -66.0833 180° South 540 621 37,000  Level San Juan Center
Sat 02:47:58 AM 21.3333 -66.0667 174° South 510 587 37,000  Level San Juan Center
Sat 02:48:58 AM 21.2000 -66.0833 187° South 500 575 37,000  Level San Juan Center
Sat 02:49:59 AM 21.0500 -66.1000 186° South 510 587 37,000 -50 Level San Juan Center
Sat 02:50:59 AM 20.9167 -66.1000 180° South 480 552 36,900 -500 Descending San Juan Center
Sat 02:51:59 AM 20.7833 -66.1000 180° South 500 575 36,000 -1,350 Descending San Juan Center
Sat 02:52:59 AM 20.6333 -66.1000 180° South 490 564 34,200 -2,100 Descending San Juan Center
Sat 02:53:59 AM 20.5000 -66.1167 187° South 510 587 31,800 -2,300 Descending San Juan Center
Sat 02:54:59 AM 20.3500 -66.1167 180° South 510 587 29,600 -2,033 Descending San Juan Center
Sat 02:56:00 AM 20.2167 -66.1167 180° South 500 575 27,700 -2,033 Descending San Juan Center
Sat 02:57:00 AM 20.0833 -66.1333 187° South 470 541 25,500 -2,150 Descending San Juan Center
Sat 02:58:00 AM 19.9667 -66.1333 180° South 450 518 23,400 -2,050 Descending San Juan Center
Sat 02:59:00 AM 19.8333 -66.1333 180° South 430 495 21,400 -1,850 Descending San Juan Center
Sat 03:00:00 AM 19.7167 -66.1500 188° South 420 483 19,700 -1,850 Descending San Juan Center
Sat 03:01:00 AM 19.6000 -66.1500 180° South 410 472 17,700 -1,950 Descending San Juan Center
Sat 03:02:00 AM 19.5000 -66.1500 180° South 400 460 15,800 -1,950 Descending San Juan Center
Sat 03:03:00 AM 19.3833 -66.1500 180° South 380 437 13,800 -1,700 Descending San Juan Center
Sat 03:04:00 AM 19.2833 -66.1500 180° South 360 414 12,400 -1,400 Descending San Juan Center
Sat 03:05:00 AM 19.2000 -66.1667 191° South 340 391 11,000 -1,350 Descending San Juan Center
Sat 03:06:00 AM 19.1000 -66.1667 180° South 320 368 9,700 -1,250 Descending San Juan Center
Sat 03:07:00 AM 19.0000 -66.1667 180° South 300 345 8,500 -1,190 Descending San Juan Center
Sat 03:08:01 AM 18.9167 -66.1667 180° South 300 345 7,300 -1,140 Descending San Juan Center
Sat 03:09:01 AM 18.8333 -66.1833 191° South 300 345 6,200 -950 Descending San Juan Center
Sat 03:10:01 AM 18.7667 -66.1833 180° South 290 334 5,400 -800 Descending San Juan Center
Sat 03:11:01 AM 18.6833 -66.1833 180° South 280 322 4,600 -800 Descending San Juan Center
Sat 03:12:01 AM 18.6000 -66.1833 180° South 270 311 3,800 -800 Descending San Juan Center
Sat 03:13:01 AM 18.5333 -66.1833 180° South 250 288 3,000 -645 Descending San Juan Center
Sat 03:14:02 AM 18.4667 -66.1833 180° South 220 253 2,500 -744 Descending San Juan Center
Sat 03:15:02 AM 18.4333 -66.1500 137° Southeast 190 219 1,500 -500 Descending San Juan Center
Sat 03:16:02 AM 18.4333 -66.1000 90° East 190 219 1,500 -300 Level San Juan Center
Sat 03:17:02 AM 18.4333 -66.0500 90° East 140 161 900 -650 Descending San Juan Center
Sat 03:18:02 AM 18.4333 -66.0167 90° East 140 161 200 -700 Descending San Juan Center

Login

Don't have an account? Register now (free) for customized features, flight alerts, and more!